Time;durP1;ratioP1;P1;durP2;ratioP2;P2;SDS_P1;SDS_P2;PMS_P1;PMS_P2;Temp;Humidity;BMP_temperature;BMP_pressure;BME280_temperature;BME280_humidity;BME280_pressure;Samples;Min_cycle;Max_cycle;Signal;HPM_P1;HPM_P2
2023/05/21 00:01:01;;;;;;;3.80;2.80;;;13.90;99.90;;;;;;5048469;28;20208;-64
2023/05/21 00:03:29;;;;;;;6.50;2.80;;;13.80;99.90;;;;;;5059195;28;20208;-64
2023/05/21 00:05:56;;;;;;;3.50;2.03;;;13.80;99.90;;;;;;5038668;28;20611;-64
2023/05/21 00:08:23;;;;;;;6.68;2.80;;;13.80;99.90;;;;;;5053043;28;20204;-64
2023/05/21 00:10:50;;;;;;;5.40;3.40;;;13.80;99.90;;;;;;5056563;28;20203;-64
2023/05/21 00:13:18;;;;;;;4.07;2.58;;;13.80;99.90;;;;;;5062910;28;20677;-64
2023/05/21 00:15:45;;;;;;;5.85;2.92;;;13.80;99.90;;;;;;5046514;28;20776;-64
2023/05/21 00:18:12;;;;;;;4.93;2.58;;;13.80;99.90;;;;;;5064404;28;20215;-64
2023/05/21 00:20:40;;;;;;;3.92;2.58;;;13.70;99.90;;;;;;5033181;28;20211;-64
2023/05/21 00:23:07;;;;;;;4.68;2.50;;;13.80;99.90;;;;;;5064576;28;20224;-64
2023/05/21 00:25:34;;;;;;;3.70;2.60;;;13.70;99.90;;;;;;5044315;28;20702;-64
2023/05/21 00:28:00;;;;;;;4.38;2.72;;;13.70;99.90;;;;;;5057252;28;20815;-64
2023/05/21 00:30:28;;;;;;;4.63;2.70;;;13.70;99.90;;;;;;5060340;28;20303;-64
2023/05/21 00:32:57;;;;;;;5.53;2.58;;;13.70;99.90;;;;;;5047156;28;20211;-64
2023/05/21 00:35:24;;;;;;;5.38;2.38;;;13.70;99.90;;;;;;5059011;28;20207;-64
2023/05/21 00:37:52;;;;;;;4.50;2.58;;;13.70;99.90;;;;;;5025034;28;20220;-64
2023/05/21 00:40:20;;;;;;;5.05;2.22;;;13.70;99.90;;;;;;5049625;28;20220;-64
2023/05/21 00:42:48;;;;;;;5.00;2.80;;;13.70;99.90;;;;;;5046578;28;20751;-64
2023/05/21 00:45:15;;;;;;;4.45;2.50;;;13.70;99.90;;;;;;5056265;28;20227;-64
2023/05/21 00:47:44;;;;;;;4.55;2.97;;;13.70;99.90;;;;;;5045053;28;20200;-64
2023/05/21 00:50:13;;;;;;;6.32;2.80;;;13.60;99.90;;;;;;5056344;28;20224;-64
2023/05/21 00:52:41;;;;;;;5.20;2.70;;;13.60;99.90;;;;;;5014997;28;20244;-64
2023/05/21 00:55:09;;;;;;;4.25;2.70;;;13.60;99.90;;;;;;5052526;28;20595;-64
2023/05/21 00:57:37;;;;;;;7.90;2.65;;;13.60;99.90;;;;;;5037928;28;20261;-64
2023/05/21 01:00:07;;;;;;;4.30;2.30;;;13.60;99.90;;;;;;5046449;28;20257;-64
2023/05/21 01:02:35;;;;;;;3.95;2.90;;;13.60;99.90;;;;;;5049721;28;20203;-64
2023/05/21 01:05:05;;;;;;;6.65;2.78;;;13.60;99.90;;;;;;5052758;28;20224;-64
2023/05/21 01:07:34;;;;;;;3.53;2.65;;;13.50;99.90;;;;;;5048839;28;20203;-64
2023/05/21 01:10:02;;;;;;;5.43;2.75;;;13.50;99.90;;;;;;5045154;28;20661;-64
2023/05/21 01:12:31;;;;;;;4.95;2.50;;;13.50;99.90;;;;;;5047692;28;20219;-64
2023/05/21 01:14:59;;;;;;;3.50;2.60;;;13.50;99.90;;;;;;5048163;28;20204;-63
2023/05/21 01:17:27;;;;;;;5.38;2.58;;;13.50;99.90;;;;;;5058673;28;20204;-63
2023/05/21 01:19:54;;;;;;;4.13;2.33;;;13.40;99.90;;;;;;5043368;28;20207;-64
2023/05/21 01:22:23;;;;;;;3.80;2.30;;;13.40;99.90;;;;;;5061987;28;20251;-63
2023/05/21 01:24:54;;;;;;;4.40;2.97;;;13.30;99.90;;;;;;5024958;28;20219;-64
2023/05/21 01:27:21;;;;;;;7.68;3.20;;;13.40;99.90;;;;;;5047156;28;20200;-64
2023/05/21 01:29:48;;;;;;;8.52;3.00;;;13.40;99.90;;;;;;5050110;28;21052;-64
2023/05/21 01:32:23;;;;;;;4.00;2.80;;;13.30;99.90;;;;;;5063076;28;20200;-64
2023/05/21 01:34:58;;;;;;;4.32;2.40;;;13.30;99.90;;;;;;5049497;28;20206;-64
2023/05/21 01:37:34;;;;;;;6.45;2.50;;;13.30;99.90;;;;;;5068712;28;20198;-64
2023/05/21 01:40:10;;;;;;;6.35;2.53;;;13.30;99.90;;;;;;5053541;28;20310;-64
2023/05/21 01:42:42;;;;;;;5.50;2.45;;;13.20;99.90;;;;;;5051058;28;20199;-64
2023/05/21 01:45:09;;;;;;;7.10;2.65;;;13.30;99.90;;;;;;5061387;28;20224;-64
2023/05/21 01:47:37;;;;;;;4.47;2.17;;;13.30;99.90;;;;;;5050933;28;20201;-64
2023/05/21 01:50:05;;;;;;;5.03;2.85;;;13.20;99.90;;;;;;5052105;28;21980;-64
2023/05/21 01:52:32;;;;;;;7.22;2.50;;;13.20;99.90;;;;;;5053713;28;21314;-64
2023/05/21 01:55:00;;;;;;;2.72;2.42;;;13.20;99.90;;;;;;5042058;28;20816;-64
2023/05/21 01:57:28;;;;;;;5.85;2.28;;;13.20;99.90;;;;;;5061146;28;20216;-64
2023/05/21 01:59:56;;;;;;;4.05;2.38;;;13.10;99.90;;;;;;5052181;28;20207;-64
2023/05/21 02:02:23;;;;;;;2.47;2.20;;;13.20;99.90;;;;;;5053176;28;20200;-64
2023/05/21 02:04:50;;;;;;;7.55;2.70;;;13.10;99.90;;;;;;5057672;28;20236;-64
2023/05/21 02:07:17;;;;;;;3.50;2.53;;;13.10;99.90;;;;;;5030368;28;20204;-64
2023/05/21 02:09:44;;;;;;;3.75;2.60;;;13.10;99.90;;;;;;5032492;28;20208;-63
2023/05/21 02:12:11;;;;;;;5.07;2.70;;;13.10;99.90;;;;;;5042495;28;20200;-64
2023/05/21 02:14:40;;;;;;;6.10;2.50;;;13.00;99.90;;;;;;5054593;28;20211;-64
2023/05/21 02:17:07;;;;;;;5.10;2.58;;;13.00;99.90;;;;;;5047556;28;20586;-64
2023/05/21 02:19:34;;;;;;;2.90;2.15;;;13.00;99.90;;;;;;5063962;28;20196;-64
2023/05/21 02:22:01;;;;;;;5.97;2.95;;;13.00;99.90;;;;;;5051847;28;20232;-64
2023/05/21 02:24:28;;;;;;;4.65;2.33;;;13.00;99.90;;;;;;5036578;28;20701;-63
2023/05/21 02:26:55;;;;;;;4.13;2.72;;;12.90;99.90;;;;;;5055897;28;20669;-64
2023/05/21 02:29:22;;;;;;;3.92;2.45;;;12.90;99.90;;;;;;5048925;28;20204;-64
2023/05/21 02:31:50;;;;;;;7.93;3.15;;;12.80;99.90;;;;;;5063775;28;20211;-64
2023/05/21 02:34:19;;;;;;;5.05;2.35;;;12.80;99.90;;;;;;5052120;28;20196;-64
2023/05/21 02:36:47;;;;;;;3.33;2.60;;;12.80;99.90;;;;;;5054567;28;20200;-64
2023/05/21 02:39:14;;;;;;;3.72;2.53;;;12.80;99.90;;;;;;5057422;28;20196;-64
2023/05/21 02:41:41;;;;;;;4.22;2.45;;;12.70;99.90;;;;;;5033266;28;20375;-64
2023/05/21 02:44:08;;;;;;;3.00;2.28;;;12.60;99.90;;;;;;5028614;28;20205;-64
2023/05/21 02:46:34;;;;;;;2.88;2.22;;;12.70;99.90;;;;;;5066331;28;20219;-64
2023/05/21 02:49:03;;;;;;;5.68;2.65;;;12.60;99.90;;;;;;5052374;28;20669;-64
2023/05/21 02:51:30;;;;;;;5.05;2.58;;;12.60;99.90;;;;;;5050244;28;20203;-64
2023/05/21 02:53:57;;;;;;;2.38;2.05;;;12.60;99.90;;;;;;5060236;28;20270;-64
2023/05/21 02:56:24;;;;;;;4.40;2.55;;;12.70;99.90;;;;;;5033487;28;20212;-64
2023/05/21 02:58:51;;;;;;;7.50;2.55;;;12.70;99.90;;;;;;5055566;28;20635;-64
2023/05/21 03:01:18;;;;;;;4.38;2.20;;;12.70;99.90;;;;;;5053856;28;20205;-64
2023/05/21 03:03:45;;;;;;;5.47;2.30;;;12.70;99.90;;;;;;5042773;28;20224;-64
2023/05/21 03:06:15;;;;;;;6.25;3.10;;;12.70;99.90;;;;;;5057079;28;20744;-64
2023/05/21 03:08:42;;;;;;;3.65;2.20;;;12.70;99.90;;;;;;5043535;28;20274;-64
2023/05/21 03:11:08;;;;;;;4.78;2.70;;;12.70;99.90;;;;;;5034169;28;20209;-64
2023/05/21 03:13:35;;;;;;;4.03;2.22;;;12.80;99.90;;;;;;5045378;28;20684;-64
2023/05/21 03:16:02;;;;;;;2.72;2.20;;;12.60;99.90;;;;;;5049461;28;20205;-64
2023/05/21 03:18:29;;;;;;;4.93;2.10;;;12.60;99.90;;;;;;5061070;28;20204;-63
2023/05/21 03:20:57;;;;;;;5.65;2.65;;;12.60;99.90;;;;;;5066272;28;20207;-64
2023/05/21 03:23:26;;;;;;;6.70;2.53;;;12.60;99.90;;;;;;5047722;28;20248;-64
2023/05/21 03:25:53;;;;;;;4.85;2.63;;;12.60;99.90;;;;;;5044472;28;20228;-64
2023/05/21 03:28:20;;;;;;;6.45;2.63;;;12.60;99.90;;;;;;5044104;28;20235;-64
2023/05/21 03:30:48;;;;;;;3.63;2.33;;;12.60;99.90;;;;;;5051697;28;20226;-64
2023/05/21 03:33:15;;;;;;;3.90;2.20;;;12.60;99.90;;;;;;5060865;28;20195;-64
2023/05/21 03:35:42;;;;;;;4.70;2.50;;;12.60;99.90;;;;;;5056032;28;20196;-64
2023/05/21 03:38:09;;;;;;;8.57;2.90;;;12.60;99.90;;;;;;5046165;28;20208;-64
2023/05/21 03:40:37;;;;;;;7.50;2.40;;;12.60;99.90;;;;;;5055278;28;20220;-64
2023/05/21 03:43:04;;;;;;;4.15;2.50;;;12.40;99.90;;;;;;5029122;28;20219;-64
2023/05/21 03:45:31;;;;;;;4.68;2.30;;;12.30;99.90;;;;;;5053739;28;20227;-64
2023/05/21 03:47:58;;;;;;;4.32;2.10;;;12.40;99.90;;;;;;5066062;28;20609;-64
2023/05/21 03:50:25;;;;;;;5.65;2.70;;;12.40;99.90;;;;;;5056040;28;20208;-64
2023/05/21 03:52:52;;;;;;;7.05;2.28;;;12.40;99.90;;;;;;5060406;28;20200;-63
2023/05/21 03:55:18;;;;;;;8.18;2.78;;;12.30;99.90;;;;;;5038822;28;20575;-64
2023/05/21 03:57:47;;;;;;;6.40;2.60;;;12.40;99.90;;;;;;5031401;28;20219;-64
2023/05/21 04:00:14;;;;;;;5.13;2.20;;;12.40;99.90;;;;;;5046493;28;20199;-64
2023/05/21 04:02:41;;;;;;;3.28;2.38;;;12.40;99.90;;;;;;5063205;28;20203;-64
2023/05/21 04:05:08;;;;;;;5.75;2.22;;;12.40;99.90;;;;;;5049870;28;20591;-64
2023/05/21 04:07:37;;;;;;;8.68;2.10;;;12.40;99.90;;;;;;5059853;28;20203;-63
2023/05/21 04:10:04;;;;;;;3.30;2.42;;;12.50;99.90;;;;;;5041360;28;20334;-64
2023/05/21 04:12:31;;;;;;;3.80;2.55;;;12.40;99.90;;;;;;5054738;28;20207;-64
2023/05/21 04:15:01;;;;;;;6.97;2.65;;;12.50;99.90;;;;;;5026893;28;20219;-64
2023/05/21 04:17:28;;;;;;;5.05;2.75;;;12.50;99.90;;;;;;5057236;28;20224;-64
2023/05/21 04:19:55;;;;;;;2.90;2.05;;;12.50;99.90;;;;;;5062258;28;20205;-64
2023/05/21 04:22:25;;;;;;;4.25;2.53;;;12.40;99.90;;;;;;5058122;28;20228;-64
2023/05/21 04:24:53;;;;;;;3.00;2.25;;;12.40;99.90;;;;;;5049555;28;20611;-64
2023/05/21 04:27:22;;;;;;;3.28;2.80;;;12.40;99.90;;;;;;5049194;28;20292;-64
2023/05/21 04:29:49;;;;;;;6.88;2.42;;;12.40;99.90;;;;;;5028938;28;20204;-64
2023/05/21 04:32:17;;;;;;;3.53;2.30;;;12.50;99.90;;;;;;5045411;28;20200;-64
2023/05/21 04:34:44;;;;;;;5.15;2.65;;;12.50;99.90;;;;;;5061169;28;20207;-64
2023/05/21 04:37:11;;;;;;;4.50;2.30;;;12.50;99.90;;;;;;5055278;28;21450;-64
2023/05/21 04:39:39;;;;;;;4.18;2.42;;;12.50;99.90;;;;;;5039011;28;20279;-64
2023/05/21 04:42:09;;;;;;;3.67;2.28;;;12.50;99.90;;;;;;5047038;28;20203;-64
2023/05/21 04:44:36;;;;;;;4.68;2.08;;;12.40;99.90;;;;;;5024120;28;20555;-64
2023/05/21 04:47:03;;;;;;;4.47;2.55;;;12.40;99.90;;;;;;5047723;28;20704;-64
2023/05/21 04:49:33;;;;;;;4.57;2.55;;;12.40;99.90;;;;;;5063136;28;20204;-64
2023/05/21 04:52:00;;;;;;;4.47;2.80;;;12.30;99.90;;;;;;5062845;28;20250;-64
2023/05/21 04:54:27;;;;;;;4.18;2.65;;;12.30;99.90;;;;;;5045833;28;20219;-64
2023/05/21 04:56:54;;;;;;;3.15;2.10;;;12.40;99.90;;;;;;5062736;28;20672;-64
2023/05/21 04:59:21;;;;;;;4.47;2.67;;;12.40;99.90;;;;;;5020871;28;20991;-64
2023/05/21 05:01:48;;;;;;;9.25;2.85;;;12.50;99.90;;;;;;5042125;28;20688;-64
2023/05/21 05:04:15;;;;;;;4.13;2.20;;;12.50;99.90;;;;;;5060220;28;20212;-64
2023/05/21 05:06:43;;;;;;;7.05;2.80;;;12.60;99.90;;;;;;5061846;28;20227;-64
2023/05/21 05:09:11;;;;;;;5.45;2.50;;;12.60;99.90;;;;;;5043048;28;20195;-64
2023/05/21 05:11:37;;;;;;;3.38;2.67;;;12.70;99.90;;;;;;5056788;28;20199;-64
2023/05/21 05:14:04;;;;;;;3.55;2.50;;;12.60;99.90;;;;;;5045622;28;20208;-64
2023/05/21 05:16:31;;;;;;;5.43;3.28;;;12.70;99.90;;;;;;5023491;28;20708;-64
2023/05/21 05:18:58;;;;;;;4.63;2.50;;;12.80;99.90;;;;;;5044877;28;20576;-64
2023/05/21 05:21:25;;;;;;;6.80;2.58;;;12.80;99.90;;;;;;5061345;28;20208;-64
2023/05/21 05:23:53;;;;;;;6.10;2.70;;;12.80;99.90;;;;;;5056322;28;20235;-64
2023/05/21 05:26:21;;;;;;;4.00;2.72;;;12.80;99.90;;;;;;5041961;28;20212;-64
2023/05/21 05:28:47;;;;;;;5.38;2.72;;;12.90;99.90;;;;;;5046360;28;20228;-64
2023/05/21 05:31:14;;;;;;;4.70;2.40;;;12.90;99.90;;;;;;5028367;28;20911;-64
2023/05/21 05:33:41;;;;;;;4.55;2.25;;;12.90;99.90;;;;;;5043371;28;20205;-64
2023/05/21 05:36:08;;;;;;;4.50;2.75;;;12.90;99.90;;;;;;5060047;28;20454;-64
2023/05/21 05:38:35;;;;;;;5.28;2.53;;;13.00;99.90;;;;;;5058679;28;20197;-64
2023/05/21 05:41:03;;;;;;;4.95;2.88;;;13.00;99.90;;;;;;5040579;28;23695;-65
2023/05/21 05:43:30;;;;;;;4.50;2.35;;;13.00;99.90;;;;;;5049416;28;20864;-64
2023/05/21 05:45:57;;;;;;;5.70;2.78;;;13.00;99.90;;;;;;5021097;28;20943;-64
2023/05/21 05:48:24;;;;;;;4.78;2.95;;;13.10;99.90;;;;;;5047273;28;20196;-64
2023/05/21 05:50:53;;;;;;;5.45;2.50;;;13.10;99.90;;;;;;5059105;28;20193;-64
2023/05/21 05:53:20;;;;;;;3.38;2.50;;;13.20;99.90;;;;;;5065760;28;20216;-64
2023/05/21 05:55:47;;;;;;;6.63;2.53;;;13.20;99.90;;;;;;5066201;28;20196;-64
2023/05/21 05:58:15;;;;;;;5.90;2.55;;;13.30;99.90;;;;;;5042703;28;20207;-64
2023/05/21 06:00:43;;;;;;;4.07;2.95;;;13.30;99.90;;;;;;5033453;28;20216;-64
2023/05/21 06:03:10;;;;;;;3.65;2.75;;;13.30;99.90;;;;;;5053563;28;20299;-64
2023/05/21 06:05:37;;;;;;;4.88;3.10;;;13.40;99.90;;;;;;5056452;28;20228;-64
2023/05/21 06:08:05;;;;;;;6.55;3.25;;;13.40;99.90;;;;;;5067473;28;20224;-64
2023/05/21 06:10:32;;;;;;;5.40;2.95;;;13.40;99.90;;;;;;5061074;28;20680;-64
2023/05/21 06:12:58;;;;;;;3.80;3.08;;;13.40;99.90;;;;;;5052352;28;20208;-64
2023/05/21 06:15:27;;;;;;;5.05;2.67;;;13.50;99.90;;;;;;5053352;28;20204;-64
2023/05/21 06:17:53;;;;;;;6.47;3.10;;;13.50;99.90;;;;;;5030999;28;20215;-64
2023/05/21 06:20:20;;;;;;;3.63;2.67;;;13.50;99.90;;;;;;5053813;28;20203;-64
2023/05/21 06:22:47;;;;;;;6.82;2.85;;;13.50;99.90;;;;;;5065399;28;20232;-64
2023/05/21 06:25:14;;;;;;;4.18;2.92;;;13.50;99.90;;;;;;5066677;28;20204;-64
2023/05/21 06:27:41;;;;;;;4.70;3.00;;;13.60;99.90;;;;;;5054040;28;20204;-64
2023/05/21 06:30:09;;;;;;;8.27;2.83;;;13.60;99.90;;;;;;5055612;28;20200;-64
2023/05/21 06:32:37;;;;;;;6.55;3.30;;;13.60;99.90;;;;;;5040236;28;20210;-65
2023/05/21 06:35:04;;;;;;;10.05;2.97;;;13.70;99.90;;;;;;5046083;28;20669;-64
2023/05/21 06:37:31;;;;;;;6.15;3.55;;;13.70;99.90;;;;;;5067001;28;20204;-64
2023/05/21 06:39:58;;;;;;;4.45;3.00;;;13.70;99.90;;;;;;5060605;28;20220;-64
2023/05/21 06:42:24;;;;;;;6.50;3.45;;;13.80;99.90;;;;;;5061561;28;20221;-64
2023/05/21 06:44:51;;;;;;;6.22;3.40;;;13.80;99.90;;;;;;5034738;28;20208;-64
2023/05/21 06:47:18;;;;;;;4.88;3.10;;;13.80;99.90;;;;;;5035561;28;20590;-64
2023/05/21 06:49:46;;;;;;;5.22;3.13;;;13.90;99.90;;;;;;5046071;28;20359;-63
2023/05/21 06:52:13;;;;;;;5.05;3.70;;;13.90;99.90;;;;;;5061461;28;20241;-64
2023/05/21 06:54:40;;;;;;;5.78;3.45;;;14.00;99.90;;;;;;5062719;28;20192;-64
2023/05/21 06:57:06;;;;;;;5.43;3.47;;;14.00;99.90;;;;;;5062175;28;20216;-64
2023/05/21 06:59:33;;;;;;;7.80;3.60;;;14.10;99.90;;;;;;5053770;28;20222;-64
2023/05/21 07:02:00;;;;;;;5.95;4.10;;;14.10;99.90;;;;;;4991108;28;20235;-64
2023/05/21 07:04:27;;;;;;;6.10;3.58;;;14.10;99.90;;;;;;5050898;28;20210;-64
2023/05/21 07:06:55;;;;;;;6.72;3.83;;;14.10;99.90;;;;;;5013938;28;20228;-64
2023/05/21 07:09:22;;;;;;;5.95;3.35;;;14.20;99.90;;;;;;5047666;28;20200;-64
2023/05/21 07:11:49;;;;;;;7.00;3.75;;;14.20;99.90;;;;;;5047237;28;20212;-64
2023/05/21 07:14:15;;;;;;;7.72;3.65;;;14.20;99.90;;;;;;5038152;28;20889;-64
2023/05/21 07:16:42;;;;;;;12.57;4.10;;;14.20;99.90;;;;;;5048115;28;20200;-64
2023/05/21 07:19:09;;;;;;;4.85;3.35;;;14.20;99.90;;;;;;5023575;28;20341;-64
2023/05/21 07:21:36;;;;;;;5.40;3.45;;;14.30;99.90;;;;;;5046878;28;20201;-64
2023/05/21 07:24:04;;;;;;;6.28;3.90;;;14.40;99.90;;;;;;5027019;28;20242;-64
2023/05/21 07:26:31;;;;;;;5.20;3.97;;;14.40;99.90;;;;;;5040014;28;21006;-65
2023/05/21 07:28:58;;;;;;;9.10;4.10;;;14.40;99.90;;;;;;5036850;28;20237;-65
2023/05/21 07:31:25;;;;;;;6.55;4.30;;;14.40;99.90;;;;;;5031744;28;20227;-65
2023/05/21 07:33:52;;;;;;;5.43;4.13;;;14.50;99.90;;;;;;5017956;28;20311;-64
2023/05/21 07:36:19;;;;;;;6.35;4.95;;;14.60;99.90;;;;;;5040460;28;20738;-64
2023/05/21 07:38:45;;;;;;;7.38;4.22;;;14.60;99.90;;;;;;5042063;28;20216;-64
2023/05/21 07:41:14;;;;;;;5.88;4.00;;;14.70;99.90;;;;;;5055343;28;20244;-64
2023/05/21 07:43:40;;;;;;;8.80;4.20;;;14.70;99.90;;;;;;5055361;28;20295;-64
2023/05/21 07:46:07;;;;;;;7.45;4.88;;;14.80;99.90;;;;;;5028177;28;20228;-65
2023/05/21 07:48:34;;;;;;;8.60;4.95;;;14.90;99.90;;;;;;5048816;28;20197;-64
2023/05/21 07:51:01;;;;;;;8.77;4.70;;;14.90;99.90;;;;;;5012022;28;20428;-64
2023/05/21 07:53:31;;;;;;;8.98;4.55;;;14.90;99.90;;;;;;5047024;28;20810;-64
2023/05/21 07:55:57;;;;;;;9.73;4.13;;;15.00;99.90;;;;;;5029793;28;21079;-64
2023/05/21 07:58:26;;;;;;;7.28;4.72;;;15.10;99.90;;;;;;5041969;28;20878;-64
2023/05/21 08:00:52;;;;;;;10.93;5.78;;;15.10;99.90;;;;;;5008975;28;20357;-64
2023/05/21 08:03:19;;;;;;;7.45;4.93;;;15.20;99.90;;;;;;5035555;28;20808;-64
2023/05/21 08:05:48;;;;;;;10.38;4.97;;;15.20;99.90;;;;;;5028477;28;20247;-64
2023/05/21 08:08:15;;;;;;;7.68;5.55;;;15.20;99.90;;;;;;5032838;28;20205;-64
2023/05/21 08:10:42;;;;;;;8.65;5.30;;;15.20;99.90;;;;;;5042742;28;20205;-64
2023/05/21 08:13:09;;;;;;;8.88;5.70;;;15.30;99.90;;;;;;5061454;28;20586;-64
2023/05/21 08:15:37;;;;;;;8.55;5.60;;;15.40;99.90;;;;;;5026311;28;20851;-64
2023/05/21 08:18:04;;;;;;;8.30;5.50;;;15.40;99.90;;;;;;5045776;28;20204;-64
2023/05/21 08:20:32;;;;;;;11.57;6.35;;;15.40;99.90;;;;;;5022631;28;28528;-64
2023/05/21 08:22:59;;;;;;;9.52;6.35;;;15.40;99.90;;;;;;5018947;28;20259;-64
2023/05/21 08:25:26;;;;;;;12.88;6.25;;;15.50;99.90;;;;;;5026040;28;20531;-64
2023/05/21 08:27:53;;;;;;;9.18;6.47;;;15.50;99.90;;;;;;5011003;28;20242;-64
2023/05/21 08:30:20;;;;;;;9.40;6.45;;;15.50;99.90;;;;;;5037412;28;20230;-65
2023/05/21 08:32:48;;;;;;;9.75;5.65;;;15.60;99.90;;;;;;5020465;28;20436;-64
2023/05/21 08:35:15;;;;;;;11.32;6.80;;;15.60;99.90;;;;;;5045550;28;20820;-64
2023/05/21 08:37:42;;;;;;;9.05;6.30;;;15.70;99.90;;;;;;4994712;28;20247;-64
2023/05/21 08:40:11;;;;;;;16.85;6.93;;;15.80;99.90;;;;;;5022642;28;20220;-64
2023/05/21 08:42:42;;;;;;;15.40;6.85;;;15.80;99.90;;;;;;5043922;28;20767;-64
2023/05/21 08:45:11;;;;;;;15.55;6.90;;;15.80;99.90;;;;;;5043715;28;20475;-65
2023/05/21 08:47:41;;;;;;;10.77;7.07;;;15.80;99.90;;;;;;5019410;28;20239;-64
2023/05/21 08:50:12;;;;;;;11.20;7.68;;;15.90;99.90;;;;;;5039306;28;20496;-64
2023/05/21 08:52:39;;;;;;;9.00;6.55;;;15.90;99.90;;;;;;5026331;28;20211;-64
2023/05/21 08:55:07;;;;;;;10.23;7.22;;;16.00;99.90;;;;;;5025743;28;20207;-64
2023/05/21 08:57:34;;;;;;;12.70;8.38;;;16.00;99.90;;;;;;5043961;28;20581;-65
2023/05/21 09:00:03;;;;;;;12.48;8.43;;;16.10;99.90;;;;;;5056611;28;20207;-65
2023/05/21 09:02:33;;;;;;;10.57;8.00;;;16.20;99.90;;;;;;5049346;28;20574;-64
2023/05/21 09:05:02;;;;;;;12.25;8.40;;;16.20;99.90;;;;;;5026200;28;20692;-64
2023/05/21 09:07:34;;;;;;;11.15;7.80;;;16.30;99.90;;;;;;5023464;28;20650;-64
2023/05/21 09:10:05;;;;;;;15.95;8.82;;;16.40;99.90;;;;;;5022036;28;20227;-65
2023/05/21 09:12:32;;;;;;;13.68;8.77;;;16.50;99.90;;;;;;5021258;28;20295;-65
2023/05/21 09:15:00;;;;;;;11.13;7.97;;;16.60;99.90;;;;;;5053383;28;20705;-64
2023/05/21 09:17:27;;;;;;;12.98;8.80;;;16.70;99.90;;;;;;5038482;28;20192;-64
2023/05/21 09:20:10;;;;;;;12.75;9.10;;;16.90;99.90;;;;;;4990011;28;20204;-65
2023/05/21 09:22:41;;;;;;;11.38;9.13;;;16.90;99.90;;;;;;5002961;28;20348;-64
2023/05/21 09:25:10;;;;;;;16.70;9.25;;;16.90;99.90;;;;;;5018139;28;20272;-64
2023/05/21 09:27:37;;;;;;;13.13;8.55;;;17.00;99.90;;;;;;5021855;28;20917;-64
2023/05/21 09:30:06;;;;;;;11.88;9.18;;;17.00;99.90;;;;;;5044057;28;20200;-65
2023/05/21 09:32:33;;;;;;;13.15;9.15;;;17.10;99.90;;;;;;5036782;28;20911;-64
2023/05/21 09:35:08;;;;;;;13.63;9.55;;;17.20;99.90;;;;;;5028995;28;20228;-65
2023/05/21 09:37:39;;;;;;;14.07;10.00;;;17.30;99.90;;;;;;5001825;28;20203;-64
2023/05/21 09:40:14;;;;;;;17.17;9.98;;;17.30;99.90;;;;;;5030423;28;20702;-64
2023/05/21 09:42:41;;;;;;;15.10;10.00;;;17.40;99.90;;;;;;5018673;28;20773;-65
2023/05/21 09:45:09;;;;;;;13.05;9.52;;;17.50;99.90;;;;;;5045839;28;20204;-65
2023/05/21 09:47:42;;;;;;;15.85;9.27;;;17.60;99.90;;;;;;5035876;28;20228;-65
2023/05/21 09:50:10;;;;;;;14.05;10.25;;;17.50;99.90;;;;;;5026152;28;20270;-65
2023/05/21 09:52:39;;;;;;;18.75;10.50;;;17.60;99.90;;;;;;5008220;28;20307;-65
2023/05/21 09:55:07;;;;;;;16.15;10.73;;;17.70;99.90;;;;;;5045345;28;20200;-65
2023/05/21 09:57:41;;;;;;;16.48;9.63;;;17.70;99.90;;;;;;5031642;28;20208;-64
2023/05/21 10:00:09;;;;;;;18.48;10.82;;;17.70;99.90;;;;;;5044979;28;20797;-65
2023/05/21 10:02:39;;;;;;;14.85;10.77;;;17.70;99.90;;;;;;5027959;28;20204;-65
2023/05/21 10:05:10;;;;;;;18.52;11.30;;;17.70;99.90;;;;;;5031311;28;20655;-65
2023/05/21 10:07:41;;;;;;;16.30;10.48;;;17.70;99.90;;;;;;5007257;28;20266;-64
2023/05/21 10:10:13;;;;;;;16.38;10.50;;;17.80;99.90;;;;;;5013500;28;20343;-65
2023/05/21 10:12:43;;;;;;;15.82;11.57;;;17.80;99.90;;;;;;5020910;28;20288;-65
2023/05/21 10:15:13;;;;;;;18.00;11.57;;;17.90;99.90;;;;;;5010628;28;20227;-65
2023/05/21 10:17:42;;;;;;;21.88;11.75;;;18.00;99.90;;;;;;5020924;28;20923;-65
2023/05/21 10:20:11;;;;;;;14.32;10.07;;;18.00;99.90;;;;;;5019412;28;20853;-65
2023/05/21 10:22:39;;;;;;;14.70;10.88;;;18.10;99.90;;;;;;5003652;28;20797;-65
2023/05/21 10:25:08;;;;;;;15.77;11.13;;;18.10;99.90;;;;;;4975501;28;21008;-66
2023/05/21 10:27:36;;;;;;;14.90;10.35;;;18.20;99.90;;;;;;5021405;28;20235;-66
2023/05/21 10:30:04;;;;;;;16.27;11.25;;;18.20;99.90;;;;;;5020319;28;20207;-65
2023/05/21 10:32:32;;;;;;;17.58;10.98;;;18.30;99.90;;;;;;5039814;28;20204;-66
2023/05/21 10:35:00;;;;;;;16.25;10.60;;;18.50;99.90;;;;;;5008953;28;21870;-66
2023/05/21 10:37:27;;;;;;;15.02;10.32;;;18.50;99.90;;;;;;5042641;28;20254;-66
2023/05/21 10:39:56;;;;;;;15.98;10.95;;;18.70;99.90;;;;;;4999557;28;20219;-66
2023/05/21 10:42:45;;;;;;;16.67;10.48;;;18.70;99.90;;;;;;5036380;28;20211;-65
2023/05/21 10:45:23;;;;;;;12.98;9.93;;;18.70;99.90;;;;;;5028196;28;20907;-65
2023/05/21 10:48:14;;;;;;;13.43;11.02;;;18.70;99.90;;;;;;5047539;28;21967;-66
2023/05/21 10:51:13;;;;;;;13.57;9.77;;;18.80;99.90;;;;;;5030869;28;20816;-65
2023/05/21 10:54:13;;;;;;;12.90;10.05;;;18.80;99.90;;;;;;5024228;28;20200;-66
2023/05/21 10:56:45;;;;;;;14.07;11.18;;;18.80;99.90;;;;;;5021675;28;20227;-65
2023/05/21 10:59:20;;;;;;;13.43;10.35;;;18.90;99.90;;;;;;5010658;28;20733;-66
2023/05/21 11:01:51;;;;;;;14.43;10.77;;;18.90;99.90;;;;;;5055043;28;20265;-65
2023/05/21 11:04:22;;;;;;;15.90;10.88;;;19.00;99.90;;;;;;5053189;28;20204;-66
2023/05/21 11:06:48;;;;;;;14.35;10.73;;;19.00;99.90;;;;;;5039478;28;20215;-66
2023/05/21 11:09:16;;;;;;;15.32;10.85;;;19.00;99.90;;;;;;5038671;28;20204;-66
2023/05/21 11:11:47;;;;;;;13.80;10.32;;;19.00;99.90;;;;;;5019889;28;20225;-66
2023/05/21 11:14:34;;;;;;;18.98;11.25;;;19.10;99.90;;;;;;5026080;28;22892;-65
2023/05/21 11:17:02;;;;;;;18.10;9.88;;;19.20;99.90;;;;;;5043188;28;20200;-65
2023/05/21 11:19:37;;;;;;;14.80;10.68;;;19.10;99.90;;;;;;5045052;28;21261;-66
2023/05/21 11:22:09;;;;;;;18.85;10.60;;;19.30;99.90;;;;;;5037534;28;20705;-66
2023/05/21 11:24:38;;;;;;;11.98;9.95;;;19.40;99.90;;;;;;5042804;28;20455;-65
2023/05/21 11:27:07;;;;;;;13.98;9.90;;;19.50;99.90;;;;;;5016244;28;20204;-65
2023/05/21 11:29:43;;;;;;;13.50;10.93;;;19.50;99.90;;;;;;5039204;28;20270;-65
2023/05/21 11:32:12;;;;;;;17.20;11.20;;;19.60;99.90;;;;;;5040407;28;20343;-65
2023/05/21 11:34:44;;;;;;;15.45;9.52;;;19.60;99.90;;;;;;5051576;28;20299;-65
2023/05/21 11:37:33;;;;;;;13.05;10.38;;;19.60;99.90;;;;;;5035945;28;20207;-65
2023/05/21 11:40:35;;;;;;;14.18;10.70;;;19.80;99.90;;;;;;5036809;28;20452;-65
2023/05/21 11:43:03;;;;;;;14.60;10.50;;;19.90;99.90;;;;;;5016365;28;20206;-65
2023/05/21 11:45:31;;;;;;;15.88;10.75;;;19.90;99.90;;;;;;5037154;28;20200;-65
2023/05/21 11:47:58;;;;;;;16.05;9.93;;;20.00;99.90;;;;;;5038318;28;20219;-65
2023/05/21 11:50:26;;;;;;;17.08;10.93;;;20.00;99.90;;;;;;5050924;28;20212;-66
2023/05/21 11:52:52;;;;;;;17.52;10.18;;;20.00;99.90;;;;;;5031550;28;20288;-65
2023/05/21 11:55:24;;;;;;;16.83;10.70;;;19.90;99.90;;;;;;5058509;28;20201;-65
2023/05/21 11:57:53;;;;;;;13.50;10.45;;;20.10;99.90;;;;;;5008568;28;20218;-65
2023/05/21 12:00:22;;;;;;;16.40;10.52;;;20.30;99.90;;;;;;5042719;28;20665;-65
2023/05/21 12:02:51;;;;;;;12.85;10.68;;;20.30;99.90;;;;;;5023595;28;20230;-66
2023/05/21 12:05:18;;;;;;;15.07;9.88;;;20.30;99.90;;;;;;5039581;28;20614;-65
2023/05/21 12:07:48;;;;;;;16.40;10.57;;;20.30;99.90;;;;;;5058571;28;20227;-65
2023/05/21 12:10:16;;;;;;;14.57;11.10;;;20.40;99.90;;;;;;5043903;28;20200;-66
2023/05/21 12:12:42;;;;;;;14.50;10.60;;;20.40;99.90;;;;;;5019253;28;20469;-66
2023/05/21 12:15:12;;;;;;;15.75;10.45;;;20.50;99.90;;;;;;5043832;28;20200;-66
2023/05/21 12:17:40;;;;;;;15.52;10.82;;;20.50;99.90;;;;;;5022722;28;20192;-66
2023/05/21 12:20:09;;;;;;;15.18;11.05;;;20.60;99.90;;;;;;5043996;28;20188;-65
2023/05/21 12:22:41;;;;;;;13.98;10.90;;;20.60;99.90;;;;;;5030440;28;20467;-66
2023/05/21 12:25:08;;;;;;;14.60;10.57;;;20.70;99.90;;;;;;5026577;28;20291;-66
2023/05/21 12:27:36;;;;;;;16.95;11.95;;;20.60;99.90;;;;;;5011488;28;23158;-65
2023/05/21 12:30:03;;;;;;;20.63;11.25;;;20.60;99.90;;;;;;5045459;28;20249;-65
2023/05/21 12:32:31;;;;;;;17.23;12.10;;;20.70;99.90;;;;;;5030686;28;20734;-66
2023/05/21 12:34:59;;;;;;;17.15;11.82;;;20.70;99.90;;;;;;5033114;28;20204;-65
2023/05/21 12:37:30;;;;;;;16.58;11.32;;;20.70;99.90;;;;;;5014972;28;20432;-65
2023/05/21 12:39:59;;;;;;;17.70;10.25;;;20.80;99.90;;;;;;5028264;28;20384;-65
2023/05/21 12:42:26;;;;;;;18.30;11.93;;;20.90;99.90;;;;;;5047672;28;20197;-66
2023/05/21 12:44:54;;;;;;;17.50;12.10;;;21.00;99.90;;;;;;5011062;28;20204;-65
2023/05/21 12:47:23;;;;;;;16.55;12.07;;;21.10;99.90;;;;;;5032276;28;20423;-65